sensor_id;sensor_type;location;lat;lon;timestamp;pressure;altitude;pressure_sealevel;temperature;humidity
30516;BME280;17297;54.022;10.760;2023-03-12T00:00:47;100936.03;;;5.12;64.96
30516;BME280;17297;54.022;10.760;2023-03-12T00:03:13;100946.16;;;5.08;64.80
30516;BME280;17297;54.022;10.760;2023-03-12T00:05:39;100933.97;;;5.05;65.12
30516;BME280;17297;54.022;10.760;2023-03-12T00:08:05;100941.44;;;5.02;64.94
30516;BME280;17297;54.022;10.760;2023-03-12T00:10:31;100941.75;;;4.99;64.90
30516;BME280;17297;54.022;10.760;2023-03-12T00:12:57;100949.19;;;4.95;64.84
30516;BME280;17297;54.022;10.760;2023-03-12T00:15:23;100944.00;;;4.94;65.00
30516;BME280;17297;54.022;10.760;2023-03-12T00:17:48;100954.16;;;4.90;64.83
30516;BME280;17297;54.022;10.760;2023-03-12T00:20:14;100950.78;;;4.88;64.93
30516;BME280;17297;54.022;10.760;2023-03-12T00:22:39;100956.41;;;4.85;65.04
30516;BME280;17297;54.022;10.760;2023-03-12T00:25:06;100962.88;;;4.82;65.03
30516;BME280;17297;54.022;10.760;2023-03-12T00:27:32;100956.88;;;4.80;65.21
30516;BME280;17297;54.022;10.760;2023-03-12T00:29:57;100958.84;;;4.78;64.91
30516;BME280;17297;54.022;10.760;2023-03-12T00:32:23;100956.34;;;4.77;65.04
30516;BME280;17297;54.022;10.760;2023-03-12T00:34:52;100960.97;;;4.75;64.87
30516;BME280;17297;54.022;10.760;2023-03-12T00:37:18;100960.28;;;4.73;65.17
30516;BME280;17297;54.022;10.760;2023-03-12T00:39:44;100962.28;;;4.71;64.98
30516;BME280;17297;54.022;10.760;2023-03-12T00:42:09;100967.75;;;4.69;64.97
30516;BME280;17297;54.022;10.760;2023-03-12T00:44:35;100960.75;;;4.68;65.12
30516;BME280;17297;54.022;10.760;2023-03-12T00:47:00;100964.66;;;4.64;64.85
30516;BME280;17297;54.022;10.760;2023-03-12T00:49:25;100965.66;;;4.63;64.88
30516;BME280;17297;54.022;10.760;2023-03-12T00:51:51;100966.78;;;4.60;65.11
30516;BME280;17297;54.022;10.760;2023-03-12T00:54:17;100963.47;;;4.58;64.99
30516;BME280;17297;54.022;10.760;2023-03-12T00:56:42;100961.94;;;4.56;65.28
30516;BME280;17297;54.022;10.760;2023-03-12T00:59:09;100963.75;;;4.55;65.18
30516;BME280;17297;54.022;10.760;2023-03-12T01:01:34;100963.88;;;4.54;65.12
30516;BME280;17297;54.022;10.760;2023-03-12T01:04:00;100972.88;;;4.53;65.12
30516;BME280;17297;54.022;10.760;2023-03-12T01:06:25;100964.19;;;4.51;64.90
30516;BME280;17297;54.022;10.760;2023-03-12T01:08:50;100967.00;;;4.49;65.07
30516;BME280;17297;54.022;10.760;2023-03-12T01:11:18;100962.81;;;4.47;65.00
30516;BME280;17297;54.022;10.760;2023-03-12T01:13:44;100971.81;;;4.46;65.08
30516;BME280;17297;54.022;10.760;2023-03-12T01:16:10;100972.63;;;4.46;65.10
30516;BME280;17297;54.022;10.760;2023-03-12T01:18:35;100963.94;;;4.44;65.12
30516;BME280;17297;54.022;10.760;2023-03-12T01:21:01;100963.25;;;4.42;65.15
30516;BME280;17297;54.022;10.760;2023-03-12T01:23:26;100971.53;;;4.39;65.07
30516;BME280;17297;54.022;10.760;2023-03-12T01:25:52;100968.03;;;4.38;65.19
30516;BME280;17297;54.022;10.760;2023-03-12T01:28:20;100969.16;;;4.36;65.29
30516;BME280;17297;54.022;10.760;2023-03-12T01:30:46;100977.16;;;4.36;65.20
30516;BME280;17297;54.022;10.760;2023-03-12T01:33:11;100968.50;;;4.34;65.14
30516;BME280;17297;54.022;10.760;2023-03-12T01:35:38;100976.59;;;4.32;65.20
30516;BME280;17297;54.022;10.760;2023-03-12T01:38:05;100980.41;;;4.30;65.05
30516;BME280;17297;54.022;10.760;2023-03-12T01:40:33;100978.72;;;4.29;65.35
30516;BME280;17297;54.022;10.760;2023-03-12T01:43:35;100985.19;;;4.26;65.19
30516;BME280;17297;54.022;10.760;2023-03-12T01:46:05;100986.19;;;4.25;65.06
30516;BME280;17297;54.022;10.760;2023-03-12T01:48:38;100993.47;;;4.23;65.09
30516;BME280;17297;54.022;10.760;2023-03-12T01:51:07;100990.13;;;4.21;65.28
30516;BME280;17297;54.022;10.760;2023-03-12T01:53:33;100984.81;;;4.21;65.22
30516;BME280;17297;54.022;10.760;2023-03-12T01:55:59;100995.75;;;4.18;65.07
30516;BME280;17297;54.022;10.760;2023-03-12T01:58:31;100987.88;;;4.16;65.02
30516;BME280;17297;54.022;10.760;2023-03-12T02:00:59;100993.22;;;4.16;65.37
30516;BME280;17297;54.022;10.760;2023-03-12T02:03:24;100986.34;;;4.14;65.24
30516;BME280;17297;54.022;10.760;2023-03-12T02:06:00;100980.19;;;4.13;65.30
30516;BME280;17297;54.022;10.760;2023-03-12T02:08:27;100987.50;;;4.11;65.11
30516;BME280;17297;54.022;10.760;2023-03-12T02:10:52;100987.63;;;4.10;65.05
30516;BME280;17297;54.022;10.760;2023-03-12T02:13:19;100993.13;;;4.08;65.09
30516;BME280;17297;54.022;10.760;2023-03-12T02:15:46;100998.44;;;4.08;65.06
30516;BME280;17297;54.022;10.760;2023-03-12T02:18:15;101003.91;;;4.07;65.21
30516;BME280;17297;54.022;10.760;2023-03-12T02:23:28;101006.72;;;4.05;65.37
30516;BME280;17297;54.022;10.760;2023-03-12T02:25:56;101001.41;;;4.05;65.11
30516;BME280;17297;54.022;10.760;2023-03-12T02:28:26;100999.03;;;4.02;65.29
30516;BME280;17297;54.022;10.760;2023-03-12T02:30:56;101002.50;;;4.03;65.26
30516;BME280;17297;54.022;10.760;2023-03-12T02:33:22;101000.81;;;4.02;65.20
30516;BME280;17297;54.022;10.760;2023-03-12T02:35:48;100993.00;;;4.00;65.09
30516;BME280;17297;54.022;10.760;2023-03-12T02:38:37;101000.13;;;4.00;65.38
30516;BME280;17297;54.022;10.760;2023-03-12T02:41:10;101002.94;;;3.98;65.40
30516;BME280;17297;54.022;10.760;2023-03-12T02:43:36;101004.75;;;3.98;65.41
30516;BME280;17297;54.022;10.760;2023-03-12T02:46:03;101014.56;;;3.97;65.31
30516;BME280;17297;54.022;10.760;2023-03-12T02:48:28;101011.06;;;3.97;65.40
30516;BME280;17297;54.022;10.760;2023-03-12T02:50:53;101006.59;;;3.97;65.38
30516;BME280;17297;54.022;10.760;2023-03-12T02:53:19;101009.38;;;3.96;65.43
30516;BME280;17297;54.022;10.760;2023-03-12T02:55:44;101013.19;;;3.93;65.48
30516;BME280;17297;54.022;10.760;2023-03-12T02:58:10;101011.38;;;3.93;65.36
30516;BME280;17297;54.022;10.760;2023-03-12T03:00:35;101017.69;;;3.92;65.32
30516;BME280;17297;54.022;10.760;2023-03-12T03:03:02;101011.50;;;3.92;65.36
30516;BME280;17297;54.022;10.760;2023-03-12T03:05:28;101012.47;;;3.91;65.65
30516;BME280;17297;54.022;10.760;2023-03-12T03:07:53;101013.47;;;3.90;65.43
30516;BME280;17297;54.022;10.760;2023-03-12T03:10:19;101015.44;;;3.88;65.18
30516;BME280;17297;54.022;10.760;2023-03-12T03:12:44;101014.59;;;3.87;65.41
30516;BME280;17297;54.022;10.760;2023-03-12T03:15:10;101008.44;;;3.87;65.53
30516;BME280;17297;54.022;10.760;2023-03-12T03:17:36;101010.38;;;3.85;65.47
30516;BME280;17297;54.022;10.760;2023-03-12T03:20:02;101021.19;;;3.83;65.20
30516;BME280;17297;54.022;10.760;2023-03-12T03:22:31;101012.50;;;3.81;65.47
30516;BME280;17297;54.022;10.760;2023-03-12T03:24:57;101010.69;;;3.82;65.55
30516;BME280;17297;54.022;10.760;2023-03-12T03:27:23;101015.16;;;3.81;65.45
30516;BME280;17297;54.022;10.760;2023-03-12T03:29:51;101017.00;;;3.81;65.43
30516;BME280;17297;54.022;10.760;2023-03-12T03:32:17;101017.94;;;3.80;65.43
30516;BME280;17297;54.022;10.760;2023-03-12T03:34:43;101009.97;;;3.80;65.53
30516;BME280;17297;54.022;10.760;2023-03-12T03:37:09;101016.28;;;3.79;65.44
30516;BME280;17297;54.022;10.760;2023-03-12T03:39:35;101026.94;;;3.79;65.51
30516;BME280;17297;54.022;10.760;2023-03-12T03:42:01;101029.59;;;3.79;65.42
30516;BME280;17297;54.022;10.760;2023-03-12T03:44:29;101016.28;;;3.79;65.44
30516;BME280;17297;54.022;10.760;2023-03-12T03:46:55;101015.44;;;3.78;65.51
30516;BME280;17297;54.022;10.760;2023-03-12T03:49:21;101019.78;;;3.79;65.53
30516;BME280;17297;54.022;10.760;2023-03-12T03:51:47;101023.28;;;3.80;65.41
30516;BME280;17297;54.022;10.760;2023-03-12T03:54:17;101028.59;;;3.80;65.60
30516;BME280;17297;54.022;10.760;2023-03-12T03:56:44;101029.47;;;3.80;65.48
30516;BME280;17297;54.022;10.760;2023-03-12T03:59:10;101029.47;;;3.80;65.40
30516;BME280;17297;54.022;10.760;2023-03-12T04:01:38;101021.47;;;3.80;65.35
30516;BME280;17297;54.022;10.760;2023-03-12T04:04:03;101023.28;;;3.80;65.46
30516;BME280;17297;54.022;10.760;2023-03-12T04:06:31;101024.28;;;3.79;65.48
30516;BME280;17297;54.022;10.760;2023-03-12T04:08:58;101028.75;;;3.78;65.35
30516;BME280;17297;54.022;10.760;2023-03-12T04:11:25;101030.59;;;3.78;65.50
30516;BME280;17297;54.022;10.760;2023-03-12T04:13:52;101027.91;;;3.78;65.48
30516;BME280;17297;54.022;10.760;2023-03-12T04:16:21;101024.56;;;3.76;65.49
30516;BME280;17297;54.022;10.760;2023-03-12T04:18:48;101028.75;;;3.78;65.46
30516;BME280;17297;54.022;10.760;2023-03-12T04:21:16;101031.53;;;3.77;65.48
30516;BME280;17297;54.022;10.760;2023-03-12T04:23:42;101029.88;;;3.76;65.51
30516;BME280;17297;54.022;10.760;2023-03-12T04:26:09;101026.38;;;3.75;65.62
30516;BME280;17297;54.022;10.760;2023-03-12T04:28:36;101022.88;;;3.75;65.66
30516;BME280;17297;54.022;10.760;2023-03-12T04:31:05;101027.38;;;3.74;65.55
30516;BME280;17297;54.022;10.760;2023-03-12T04:33:37;101009.56;;;3.75;65.48
30516;BME280;17297;54.022;10.760;2023-03-12T04:36:04;101009.69;;;3.73;65.55
30516;BME280;17297;54.022;10.760;2023-03-12T04:38:30;101008.75;;;3.74;65.54
30516;BME280;17297;54.022;10.760;2023-03-12T04:41:15;101012.38;;;3.73;65.66
30516;BME280;17297;54.022;10.760;2023-03-12T04:43:52;101011.41;;;3.74;65.59
30516;BME280;17297;54.022;10.760;2023-03-12T04:46:19;101018.41;;;3.75;65.52
30516;BME280;17297;54.022;10.760;2023-03-12T04:48:44;101007.88;;;3.74;65.61
30516;BME280;17297;54.022;10.760;2023-03-12T04:51:11;101002.56;;;3.74;65.48
30516;BME280;17297;54.022;10.760;2023-03-12T04:53:36;101008.88;;;3.73;65.44
30516;BME280;17297;54.022;10.760;2023-03-12T04:56:02;101008.03;;;3.72;65.70
30516;BME280;17297;54.022;10.760;2023-03-12T04:58:30;101010.69;;;3.72;65.56
30516;BME280;17297;54.022;10.760;2023-03-12T05:00:55;101014.34;;;3.71;65.74
30516;BME280;17297;54.022;10.760;2023-03-12T05:03:21;101003.69;;;3.71;65.63
30516;BME280;17297;54.022;10.760;2023-03-12T05:05:47;101011.81;;;3.69;65.75
30516;BME280;17297;54.022;10.760;2023-03-12T05:08:13;101007.47;;;3.68;65.62
30516;BME280;17297;54.022;10.760;2023-03-12T05:10:39;101011.09;;;3.67;65.54
30516;BME280;17297;54.022;10.760;2023-03-12T05:13:13;101005.09;;;3.65;65.73
30516;BME280;17297;54.022;10.760;2023-03-12T05:15:38;101006.94;;;3.65;65.58
30516;BME280;17297;54.022;10.760;2023-03-12T05:18:04;101011.53;;;3.63;65.45
30516;BME280;17297;54.022;10.760;2023-03-12T05:20:29;101000.91;;;3.63;65.53
30516;BME280;17297;54.022;10.760;2023-03-12T05:22:54;101007.22;;;3.62;65.47
30516;BME280;17297;54.022;10.760;2023-03-12T05:25:20;101001.19;;;3.60;65.56
30516;BME280;17297;54.022;10.760;2023-03-12T05:27:45;100998.69;;;3.58;65.56
30516;BME280;17297;54.022;10.760;2023-03-12T05:30:11;101005.94;;;3.56;65.42
30516;BME280;17297;54.022;10.760;2023-03-12T05:32:37;101004.28;;;3.55;65.77
30516;BME280;17297;54.022;10.760;2023-03-12T05:35:02;101005.41;;;3.53;65.63
30516;BME280;17297;54.022;10.760;2023-03-12T05:37:28;101011.69;;;3.52;65.57
30516;BME280;17297;54.022;10.760;2023-03-12T05:39:53;101008.19;;;3.51;65.59
30516;BME280;17297;54.022;10.760;2023-03-12T05:42:19;101010.84;;;3.51;65.64
30516;BME280;17297;54.022;10.760;2023-03-12T05:44:45;101009.00;;;3.52;65.61
30516;BME280;17297;54.022;10.760;2023-03-12T05:47:17;101019.66;;;3.52;65.65
30516;BME280;17297;54.022;10.760;2023-03-12T05:49:42;101017.88;;;3.52;65.81
30516;BME280;17297;54.022;10.760;2023-03-12T05:52:09;101026.53;;;3.54;65.77
30516;BME280;17297;54.022;10.760;2023-03-12T05:54:35;101024.69;;;3.55;65.81
30516;BME280;17297;54.022;10.760;2023-03-12T05:57:02;101016.59;;;3.56;65.74
30516;BME280;17297;54.022;10.760;2023-03-12T05:59:28;101014.47;;;3.60;65.67
30516;BME280;17297;54.022;10.760;2023-03-12T06:01:55;101017.69;;;3.63;65.81
30516;BME280;17297;54.022;10.760;2023-03-12T06:04:20;101015.59;;;3.67;65.83
30516;BME280;17297;54.022;10.760;2023-03-12T06:06:46;101017.84;;;3.72;65.78
30516;BME280;17297;54.022;10.760;2023-03-12T06:09:12;101018.41;;;3.75;65.83
30516;BME280;17297;54.022;10.760;2023-03-12T06:11:37;101024.28;;;3.79;65.83
30516;BME280;17297;54.022;10.760;2023-03-12T06:14:03;101025.66;;;3.83;66.02
30516;BME280;17297;54.022;10.760;2023-03-12T06:16:30;101026.22;;;3.86;65.89
30516;BME280;17297;54.022;10.760;2023-03-12T06:18:57;101033.78;;;3.91;65.89
30516;BME280;17297;54.022;10.760;2023-03-12T06:21:28;101034.31;;;3.94;65.96
30516;BME280;17297;54.022;10.760;2023-03-12T06:23:55;101025.94;;;3.99;65.91
30516;BME280;17297;54.022;10.760;2023-03-12T06:26:26;101036.13;;;4.04;65.84
30516;BME280;17297;54.022;10.760;2023-03-12T06:28:52;101040.34;;;4.06;65.86
30516;BME280;17297;54.022;10.760;2023-03-12T06:31:18;101034.72;;;4.09;65.85
30516;BME280;17297;54.022;10.760;2023-03-12T06:33:47;101031.63;;;4.14;65.99
30516;BME280;17297;54.022;10.760;2023-03-12T06:36:13;101033.16;;;4.16;66.03
30516;BME280;17297;54.022;10.760;2023-03-12T06:38:39;101033.69;;;4.20;65.97
30516;BME280;17297;54.022;10.760;2023-03-12T06:41:08;101032.44;;;4.24;66.10
30516;BME280;17297;54.022;10.760;2023-03-12T06:43:35;101031.72;;;4.32;66.09
30516;BME280;17297;54.022;10.760;2023-03-12T06:46:02;101040.78;;;4.39;66.09
30516;BME280;17297;54.022;10.760;2023-03-12T06:48:30;101038.13;;;4.49;65.88
30516;BME280;17297;54.022;10.760;2023-03-12T06:50:57;101039.75;;;4.59;66.12
30516;BME280;17297;54.022;10.760;2023-03-12T06:53:23;101031.16;;;4.66;65.91
30516;BME280;17297;54.022;10.760;2023-03-12T06:55:50;101025.06;;;4.73;66.08
30516;BME280;17297;54.022;10.760;2023-03-12T06:58:16;101027.00;;;4.81;66.07
30516;BME280;17297;54.022;10.760;2023-03-12T07:00:42;101024.59;;;4.88;66.14
30516;BME280;17297;54.022;10.760;2023-03-12T07:03:07;101021.31;;;4.94;65.94
30516;BME280;17297;54.022;10.760;2023-03-12T07:05:32;101020.72;;;5.00;66.01
30516;BME280;17297;54.022;10.760;2023-03-12T07:07:58;101022.78;;;5.06;66.07
30516;BME280;17297;54.022;10.760;2023-03-12T07:10:23;101018.81;;;5.10;65.80
30516;BME280;17297;54.022;10.760;2023-03-12T07:12:49;101018.41;;;5.15;65.86
30516;BME280;17297;54.022;10.760;2023-03-12T07:15:15;101020.47;;;5.21;65.89
30516;BME280;17297;54.022;10.760;2023-03-12T07:17:40;101019.00;;;5.26;65.68
30516;BME280;17297;54.022;10.760;2023-03-12T07:20:06;101020.53;;;5.29;65.88
30516;BME280;17297;54.022;10.760;2023-03-12T07:22:32;101015.19;;;5.29;65.79
30516;BME280;17297;54.022;10.760;2023-03-12T07:24:57;101018.53;;;5.31;65.70
30516;BME280;17297;54.022;10.760;2023-03-12T07:27:23;101018.25;;;5.34;65.80
30516;BME280;17297;54.022;10.760;2023-03-12T07:29:48;101016.09;;;5.38;65.73
30516;BME280;17297;54.022;10.760;2023-03-12T07:32:16;101015.81;;;5.41;65.72
30516;BME280;17297;54.022;10.760;2023-03-12T07:34:41;101021.84;;;5.43;65.83
30516;BME280;17297;54.022;10.760;2023-03-12T07:37:07;101029.53;;;5.46;65.69
30516;BME280;17297;54.022;10.760;2023-03-12T07:39:33;101020.69;;;5.45;65.64
30516;BME280;17297;54.022;10.760;2023-03-12T07:41:58;101022.38;;;5.46;65.58
30516;BME280;17297;54.022;10.760;2023-03-12T07:44:24;101017.03;;;5.46;65.69
30516;BME280;17297;54.022;10.760;2023-03-12T07:46:51;101013.53;;;5.46;65.71
30516;BME280;17297;54.022;10.760;2023-03-12T07:49:16;101012.00;;;5.43;65.65
30516;BME280;17297;54.022;10.760;2023-03-12T07:51:45;101000.78;;;5.40;65.49
30516;BME280;17297;54.022;10.760;2023-03-12T07:54:11;101004.59;;;5.37;65.41
30516;BME280;17297;54.022;10.760;2023-03-12T07:56:36;101004.75;;;5.36;65.42
30516;BME280;17297;54.022;10.760;2023-03-12T07:59:02;101007.56;;;5.34;65.64
30516;BME280;17297;54.022;10.760;2023-03-12T08:01:28;101002.38;;;5.32;65.73
30516;BME280;17297;54.022;10.760;2023-03-12T08:04:00;101008.72;;;5.31;65.65
30516;BME280;17297;54.022;10.760;2023-03-12T08:06:26;101008.72;;;5.31;65.72
30516;BME280;17297;54.022;10.760;2023-03-12T08:08:52;101018.38;;;5.32;65.59
30516;BME280;17297;54.022;10.760;2023-03-12T08:11:17;101025.25;;;5.35;65.73
30516;BME280;17297;54.022;10.760;2023-03-12T08:13:43;101023.81;;;5.41;65.80
30516;BME280;17297;54.022;10.760;2023-03-12T08:16:08;101024.88;;;5.48;65.61
30516;BME280;17297;54.022;10.760;2023-03-12T08:18:34;101029.59;;;5.54;65.58
30516;BME280;17297;54.022;10.760;2023-03-12T08:20:59;101028.63;;;5.55;65.72
30516;BME280;17297;54.022;10.760;2023-03-12T08:23:24;101028.63;;;5.55;65.71
30516;BME280;17297;54.022;10.760;2023-03-12T08:25:51;101026.78;;;5.55;65.78
30516;BME280;17297;54.022;10.760;2023-03-12T08:28:18;101030.97;;;5.58;65.73
30516;BME280;17297;54.022;10.760;2023-03-12T08:30:54;101035.16;;;5.61;65.80
30516;BME280;17297;54.022;10.760;2023-03-12T08:33:20;101033.03;;;5.64;65.72
30516;BME280;17297;54.022;10.760;2023-03-12T08:35:48;101034.41;;;5.68;66.03
30516;BME280;17297;54.022;10.760;2023-03-12T08:38:13;101028.56;;;5.73;65.97
30516;BME280;17297;54.022;10.760;2023-03-12T08:40:39;101023.09;;;5.74;65.77
30516;BME280;17297;54.022;10.760;2023-03-12T08:43:04;101029.13;;;5.76;65.75
30516;BME280;17297;54.022;10.760;2023-03-12T08:45:31;101034.31;;;5.78;65.85
30516;BME280;17297;54.022;10.760;2023-03-12T08:47:57;101036.66;;;5.81;65.72
30516;BME280;17297;54.022;10.760;2023-03-12T08:50:22;101032.03;;;5.83;65.68
30516;BME280;17297;54.022;10.760;2023-03-12T08:52:50;101023.00;;;5.84;65.85
30516;BME280;17297;54.022;10.760;2023-03-12T08:55:15;101021.84;;;5.87;65.67
30516;BME280;17297;54.022;10.760;2023-03-12T08:57:40;101019.88;;;5.89;65.80
30516;BME280;17297;54.022;10.760;2023-03-12T09:00:07;101025.75;;;5.92;66.01
30516;BME280;17297;54.022;10.760;2023-03-12T09:02:36;101021.78;;;5.96;65.83
30516;BME280;17297;54.022;10.760;2023-03-12T09:05:02;101007.97;;;6.01;66.03
30516;BME280;17297;54.022;10.760;2023-03-12T09:07:30;101005.16;;;6.03;65.92
30516;BME280;17297;54.022;10.760;2023-03-12T09:09:55;101009.34;;;6.05;65.96
30516;BME280;17297;54.022;10.760;2023-03-12T09:12:20;101004.66;;;6.07;65.71
30516;BME280;17297;54.022;10.760;2023-03-12T09:14:46;101006.19;;;6.10;65.87
30516;BME280;17297;54.022;10.760;2023-03-12T09:17:11;100998.16;;;6.10;65.79
30516;BME280;17297;54.022;10.760;2023-03-12T09:19:36;100992.69;;;6.11;65.92
30516;BME280;17297;54.022;10.760;2023-03-12T09:22:02;100986.34;;;6.12;65.84
30516;BME280;17297;54.022;10.760;2023-03-12T09:24:27;100983.88;;;6.19;66.02
30516;BME280;17297;54.022;10.760;2023-03-12T09:26:52;100989.72;;;6.22;65.90
30516;BME280;17297;54.022;10.760;2023-03-12T09:29:18;100981.91;;;6.29;66.05
30516;BME280;17297;54.022;10.760;2023-03-12T09:31:43;100979.28;;;6.37;66.01
30516;BME280;17297;54.022;10.760;2023-03-12T09:34:08;100974.97;;;6.44;66.05
30516;BME280;17297;54.022;10.760;2023-03-12T09:36:34;100958.97;;;6.53;65.89
30516;BME280;17297;54.022;10.760;2023-03-12T09:39:00;100954.66;;;6.60;66.06
30516;BME280;17297;54.022;10.760;2023-03-12T09:41:29;100951.50;;;6.64;65.91
30516;BME280;17297;54.022;10.760;2023-03-12T09:44:01;100950.16;;;6.68;65.83
30516;BME280;17297;54.022;10.760;2023-03-12T09:46:36;100947.34;;;6.70;65.93
30516;BME280;17297;54.022;10.760;2023-03-12T09:49:05;100951.50;;;6.72;65.82
30516;BME280;17297;54.022;10.760;2023-03-12T09:51:40;100945.34;;;6.72;65.89
30516;BME280;17297;54.022;10.760;2023-03-12T09:54:20;100938.81;;;6.75;65.82
30516;BME280;17297;54.022;10.760;2023-03-12T09:56:48;100944.84;;;6.77;65.82
30516;BME280;17297;54.022;10.760;2023-03-12T09:59:15;100939.50;;;6.77;65.73
30516;BME280;17297;54.022;10.760;2023-03-12T10:01:51;100917.28;;;6.76;65.89
30516;BME280;17297;54.022;10.760;2023-03-12T10:07:00;100924.28;;;6.69;65.83
30516;BME280;17297;54.022;10.760;2023-03-12T10:12:19;100921.28;;;6.72;65.92
30516;BME280;17297;54.022;10.760;2023-03-12T10:15:10;100911.59;;;6.71;65.93
30516;BME280;17297;54.022;10.760;2023-03-12T10:17:57;100904.06;;;6.75;65.87
30516;BME280;17297;54.022;10.760;2023-03-12T10:23:41;100902.59;;;6.80;66.09
30516;BME280;17297;54.022;10.760;2023-03-12T10:26:18;100903.25;;;6.82;65.88
30516;BME280;17297;54.022;10.760;2023-03-12T10:28:56;100898.25;;;6.87;66.07
30516;BME280;17297;54.022;10.760;2023-03-12T10:31:57;100884.38;;;6.92;66.01
30516;BME280;17297;54.022;10.760;2023-03-12T10:34:29;100882.03;;;6.97;66.05
30516;BME280;17297;54.022;10.760;2023-03-12T10:37:00;100879.22;;;6.99;66.12
30516;BME280;17297;54.022;10.760;2023-03-12T10:39:27;100869.50;;;7.06;66.17
30516;BME280;17297;54.022;10.760;2023-03-12T10:41:58;100861.81;;;7.11;66.27
30516;BME280;17297;54.022;10.760;2023-03-12T10:44:24;100854.97;;;7.16;66.01
30516;BME280;17297;54.022;10.760;2023-03-12T10:49:46;100834.72;;;7.22;65.92
30516;BME280;17297;54.022;10.760;2023-03-12T10:52:19;100833.38;;;7.26;65.87
30516;BME280;17297;54.022;10.760;2023-03-12T10:54:48;100834.38;;;7.33;65.76
30516;BME280;17297;54.022;10.760;2023-03-12T10:57:15;100831.00;;;7.39;65.70
30516;BME280;17297;54.022;10.760;2023-03-12T10:59:43;100834.69;;;7.47;65.78
30516;BME280;17297;54.022;10.760;2023-03-12T11:04:52;100821.94;;;7.57;65.46
30516;BME280;17297;54.022;10.760;2023-03-12T11:07:38;100818.91;;;7.60;65.28
30516;BME280;17297;54.022;10.760;2023-03-12T11:12:35;100813.22;;;7.63;64.87
30516;BME280;17297;54.022;10.760;2023-03-12T11:15:40;100812.72;;;7.68;64.90
30516;BME280;17297;54.022;10.760;2023-03-12T11:21:11;100802.81;;;7.76;64.61
30516;BME280;17297;54.022;10.760;2023-03-12T11:23:42;100798.41;;;7.83;64.60
30516;BME280;17297;54.022;10.760;2023-03-12T11:26:15;100790.03;;;7.86;64.35
30516;BME280;17297;54.022;10.760;2023-03-12T11:28:55;100799.56;;;7.89;64.29
30516;BME280;17297;54.022;10.760;2023-03-12T11:31:29;100793.53;;;7.87;63.93
30516;BME280;17297;54.022;10.760;2023-03-12T11:34:04;100790.72;;;7.89;63.93
30516;BME280;17297;54.022;10.760;2023-03-12T11:36:45;100790.72;;;7.89;63.64
30516;BME280;17297;54.022;10.760;2023-03-12T11:42:05;100792.41;;;7.81;63.25
30516;BME280;17297;54.022;10.760;2023-03-12T11:50:11;100784.22;;;7.75;62.96
30516;BME280;17297;54.022;10.760;2023-03-12T11:55:59;100784.91;;;7.69;63.00
30516;BME280;17297;54.022;10.760;2023-03-12T11:58:51;100783.75;;;7.63;62.27
30516;BME280;17297;54.022;10.760;2023-03-12T12:01:49;100791.31;;;7.59;62.65
30516;BME280;17297;54.022;10.760;2023-03-12T12:07:26;100780.28;;;7.54;62.25
30516;BME280;17297;54.022;10.760;2023-03-12T12:10:07;100774.09;;;7.54;62.15
30516;BME280;17297;54.022;10.760;2023-03-12T12:15:36;100739.34;;;7.46;61.56
30516;BME280;17297;54.022;10.760;2023-03-12T12:21:20;100751.56;;;7.40;61.48
30516;BME280;17297;54.022;10.760;2023-03-12T12:26:45;100749.22;;;7.45;61.42
30516;BME280;17297;54.022;10.760;2023-03-12T12:29:30;100747.38;;;7.46;61.35
30516;BME280;17297;54.022;10.760;2023-03-12T12:32:01;100740.00;;;7.48;61.37
30516;BME280;17297;54.022;10.760;2023-03-12T12:37:49;100735.13;;;7.51;61.35
30516;BME280;17297;54.022;10.760;2023-03-12T12:40:34;100731.25;;;7.54;60.91
30516;BME280;17297;54.022;10.760;2023-03-12T12:45:38;100731.44;;;7.52;60.20
30516;BME280;17297;54.022;10.760;2023-03-12T12:48:15;100726.44;;;7.49;60.45
30516;BME280;17297;54.022;10.760;2023-03-12T12:50:43;100713.88;;;7.50;60.57
30516;BME280;17297;54.022;10.760;2023-03-12T12:53:23;100710.38;;;7.49;60.47
30516;BME280;17297;54.022;10.760;2023-03-12T12:56:05;100699.50;;;7.51;60.33
30516;BME280;17297;54.022;10.760;2023-03-12T12:58:51;100698.66;;;7.50;60.11
30516;BME280;17297;54.022;10.760;2023-03-12T13:01:20;100685.25;;;7.50;59.68
30516;BME280;17297;54.022;10.760;2023-03-12T13:03:46;100688.97;;;7.49;59.36
30516;BME280;17297;54.022;10.760;2023-03-12T13:06:12;100679.09;;;7.50;59.50
30516;BME280;17297;54.022;10.760;2023-03-12T13:13:44;100677.38;;;7.57;59.87
30516;BME280;17297;54.022;10.760;2023-03-12T13:16:32;100679.69;;;7.60;59.95
30516;BME280;17297;54.022;10.760;2023-03-12T13:18:58;100669.66;;;7.62;60.09
30516;BME280;17297;54.022;10.760;2023-03-12T13:21:39;100671.03;;;7.58;60.14
30516;BME280;17297;54.022;10.760;2023-03-12T13:24:14;100663.81;;;7.58;60.00
30516;BME280;17297;54.022;10.760;2023-03-12T13:31:57;100668.03;;;7.53;59.57
30516;BME280;17297;54.022;10.760;2023-03-12T13:36:53;100653.19;;;7.42;59.63
30516;BME280;17297;54.022;10.760;2023-03-12T13:39:32;100665.91;;;7.40;60.00
30516;BME280;17297;54.022;10.760;2023-03-12T13:41:59;100661.22;;;7.42;59.90
30516;BME280;17297;54.022;10.760;2023-03-12T13:47:03;100634.47;;;7.42;60.04
30516;BME280;17297;54.022;10.760;2023-03-12T13:49:52;100631.59;;;7.44;60.16
30516;BME280;17297;54.022;10.760;2023-03-12T13:52:29;100634.63;;;7.40;60.05
30516;BME280;17297;54.022;10.760;2023-03-12T13:55:05;100626.94;;;7.37;59.68
30516;BME280;17297;54.022;10.760;2023-03-12T14:00:11;100637.84;;;7.36;59.84
30516;BME280;17297;54.022;10.760;2023-03-12T14:02:45;100625.78;;;7.32;59.73
30516;BME280;17297;54.022;10.760;2023-03-12T14:05:14;100615.44;;;7.29;59.78
30516;BME280;17297;54.022;10.760;2023-03-12T14:07:48;100600.94;;;7.23;59.78